Time;durP1;ratioP1;P1;durP2;ratioP2;P2;SDS_P1;SDS_P2;PMS_P1;PMS_P2;Temp;Humidity;BMP_temperature;BMP_pressure;BME280_temperature;BME280_humidity;BME280_pressure;Samples;Min_cycle;Max_cycle;Signal;HPM_P1;HPM_P2
2023/05/29 00:02:01;;;;;;;4.80;3.10;;;;;;;12.91;52.97;100058.51;106238;1257;72147;-82
2023/05/29 00:04:29;;;;;;;6.00;3.50;;;;;;;12.92;53.07;100060.23;105939;1253;60152;-80
2023/05/29 00:06:57;;;;;;;4.80;3.20;;;;;;;12.91;53.12;100060.48;106069;1254;60042;-80
2023/05/29 00:09:25;;;;;;;5.20;3.60;;;;;;;12.90;53.13;100058.30;107203;1257;74971;-79
2023/05/29 00:11:52;;;;;;;7.30;3.70;;;;;;;12.91;53.07;100065.15;107423;1253;70131;-81
2023/05/29 00:14:22;;;;;;;6.50;3.70;;;;;;;12.92;53.17;100061.27;106306;1251;71289;-80
2023/05/29 00:16:50;;;;;;;6.30;3.90;;;;;;;12.93;53.41;100057.23;106537;1253;62027;-80
2023/05/29 00:19:19;;;;;;;4.70;3.40;;;;;;;12.93;53.33;100060.63;106423;1258;59631;-78
2023/05/29 00:21:47;;;;;;;8.10;3.60;;;;;;;12.91;53.53;100065.02;106417;1251;72273;-80
2023/05/29 00:24:15;;;;;;;6.20;3.20;;;;;;;12.86;53.63;100066.61;108400;1251;70928;-80
2023/05/29 00:26:43;;;;;;;6.20;4.20;;;;;;;12.84;53.90;100067.63;108373;1251;73481;-81
2023/05/29 00:29:11;;;;;;;5.60;3.20;;;;;;;12.79;54.26;100063.08;106575;1251;59816;-81
2023/05/29 00:31:38;;;;;;;5.70;3.10;;;;;;;12.73;54.33;100066.81;106153;1254;60815;-79
2023/05/29 00:34:06;;;;;;;4.70;3.30;;;;;;;12.69;54.52;100066.96;106104;1256;71829;-81
2023/05/29 00:36:34;;;;;;;7.80;3.20;;;;;;;12.66;54.62;100069.11;106149;1251;70371;-80
2023/05/29 00:39:02;;;;;;;3.80;3.20;;;;;;;12.60;54.74;100073.29;106229;1258;72691;-81
2023/05/29 00:41:30;;;;;;;5.60;3.10;;;;;;;12.51;54.89;100067.77;106090;1253;59708;-79
2023/05/29 00:43:57;;;;;;;7.40;3.10;;;;;;;12.43;55.14;100064.17;108455;1256;58787;-80
2023/05/29 00:46:25;;;;;;;7.50;3.70;;;;;;;12.38;55.38;100062.72;108463;1251;71777;-78
2023/05/29 00:48:53;;;;;;;8.80;3.60;;;;;;;12.37;55.51;100064.92;106826;1253;69065;-81
2023/05/29 00:51:20;;;;;;;7.20;3.30;;;;;;;12.34;55.63;100059.68;105959;1251;72445;-80
2023/05/29 00:53:47;;;;;;;4.80;3.40;;;;;;;12.33;55.62;100061.23;106014;1251;60427;-79
2023/05/29 00:56:16;;;;;;;6.00;3.30;;;;;;;12.29;55.82;100055.83;106236;1251;60504;-80
2023/05/29 00:58:43;;;;;;;4.00;3.10;;;;;;;12.26;56.06;100061.39;105986;1251;74296;-82
2023/05/29 01:01:11;;;;;;;6.00;3.50;;;;;;;12.24;56.16;100057.45;106026;1257;69016;-81
2023/05/29 01:03:39;;;;;;;7.40;3.30;;;;;;;12.19;56.05;100053.48;106076;1253;72775;-80
2023/05/29 01:06:07;;;;;;;7.70;3.80;;;;;;;12.16;56.25;100059.73;106069;1254;60512;-81
2023/05/29 01:08:35;;;;;;;6.30;3.00;;;;;;;12.12;56.51;100060.31;106243;1257;60421;-80
2023/05/29 01:11:28;;;;;;;6.00;3.70;;;;;;;12.11;56.49;100060.30;106041;1251;73863;-81
2023/05/29 01:13:56;;;;;;;7.20;3.30;;;;;;;12.07;56.71;100060.58;105929;1251;70258;-82
2023/05/29 01:16:35;;;;;;;5.60;2.80;;;;;;;12.04;56.76;100065.52;105996;1253;71330;-81
2023/05/29 01:19:16;;;;;;;6.50;3.20;;;;;;;11.97;56.80;100063.32;105879;1253;60534;-81
2023/05/29 01:21:59;;;;;;;6.20;3.70;;;;;;;11.92;56.97;100064.33;105874;1257;60463;-80
2023/05/29 01:24:38;;;;;;;6.20;3.20;;;;;;;11.84;57.32;100068.52;106024;1251;72716;-81
2023/05/29 01:27:10;;;;;;;6.90;3.40;;;;;;;11.76;57.52;100068.69;106117;1257;68891;-80
2023/05/29 01:29:39;;;;;;;7.00;3.50;;;;;;;11.71;57.67;100069.21;107623;1256;72403;-81
2023/05/29 01:32:07;;;;;;;5.90;3.20;;;;;;;11.68;57.91;100072.38;108533;1253;59297;-82
2023/05/29 01:34:34;;;;;;;9.00;3.90;;;;;;;11.67;57.89;100069.89;107549;1251;60480;-81
2023/05/29 01:37:02;;;;;;;6.20;3.70;;;;;;;11.66;57.95;100074.25;106033;1254;73851;-81
2023/05/29 01:39:30;;;;;;;6.10;3.70;;;;;;;11.62;58.15;100073.44;106112;1257;68732;-79
2023/05/29 01:41:58;;;;;;;4.10;3.00;;;;;;;11.60;58.07;100076.27;105947;1251;71588;-78
2023/05/29 01:44:25;;;;;;;3.70;3.10;;;;;;;11.59;58.15;100080.56;105841;1254;60480;-78
2023/05/29 01:46:53;;;;;;;7.20;3.10;;;;;;;11.56;58.36;100084.78;105786;1254;60423;-81
2023/05/29 01:49:20;;;;;;;7.60;4.20;;;;;;;11.55;58.56;100080.73;105827;1251;73780;-80
2023/05/29 01:51:49;;;;;;;6.60;3.40;;;;;;;11.53;58.41;100086.25;105823;1251;70641;-78
2023/05/29 01:54:17;;;;;;;5.00;3.20;;;;;;;11.50;58.55;100087.86;105888;1251;72693;-79
2023/05/29 01:56:45;;;;;;;5.70;3.90;;;;;;;11.46;58.62;100088.25;105826;1253;60416;-78
2023/05/29 01:59:12;;;;;;;6.10;3.80;;;;;;;11.40;58.94;100093.00;105988;1254;60510;-79
2023/05/29 02:01:40;;;;;;;6.40;3.40;;;;;;;11.35;58.97;100092.33;106125;1251;72729;-78
2023/05/29 02:04:10;;;;;;;5.40;3.80;;;;;;;11.28;59.27;100099.64;106038;1251;70168;-79
2023/05/29 02:06:41;;;;;;;4.90;3.30;;;;;;;11.25;59.28;100095.67;106757;1253;72045;-78
2023/05/29 02:09:08;;;;;;;7.50;3.40;;;;;;;11.23;59.55;100096.09;106061;1254;60464;-80
2023/05/29 02:11:36;;;;;;;5.00;4.00;;;;;;;11.21;59.52;100097.95;106152;1255;60400;-77
2023/05/29 02:14:04;;;;;;;6.10;3.50;;;;;;;11.21;59.77;100100.28;105988;1257;74120;-79
2023/05/29 02:16:33;;;;;;;6.70;3.60;;;;;;;11.19;59.57;100101.88;106054;1256;69411;-77
2023/05/29 02:19:01;;;;;;;6.40;3.80;;;;;;;11.18;59.84;100099.67;105990;1253;72759;-78
2023/05/29 02:21:29;;;;;;;6.30;3.90;;;;;;;11.17;59.83;100102.84;106121;1251;60568;-79
2023/05/29 02:23:58;;;;;;;5.10;3.60;;;;;;;11.17;59.98;100098.08;106195;1251;60405;-80
2023/05/29 02:26:25;;;;;;;5.40;3.30;;;;;;;11.18;59.95;100098.67;106173;1251;74119;-80
2023/05/29 02:28:53;;;;;;;7.20;3.70;;;;;;;11.18;59.90;100101.14;106143;1253;69921;-78
2023/05/29 02:31:21;;;;;;;10.10;4.00;;;;;;;11.23;59.75;100103.50;106516;1251;71438;-77
2023/05/29 02:33:49;;;;;;;8.10;4.00;;;;;;;11.25;59.69;100100.45;107478;1253;60462;-78
2023/05/29 02:36:17;;;;;;;6.10;3.90;;;;;;;11.26;59.48;100098.53;107601;1250;60536;-77
2023/05/29 02:38:45;;;;;;;5.70;3.90;;;;;;;11.28;59.52;100095.92;106695;1251;74726;-77
2023/05/29 02:41:14;;;;;;;7.00;4.60;;;;;;;11.27;59.67;100097.04;106553;1253;70486;-78
2023/05/29 02:43:43;;;;;;;5.50;3.70;;;;;;;11.29;59.47;100092.05;106481;1256;71519;-76
2023/05/29 02:46:10;;;;;;;6.50;4.10;;;;;;;11.31;59.24;100092.15;105927;1252;60532;-78
2023/05/29 02:48:41;;;;;;;5.90;3.60;;;;;;;11.33;59.05;100089.84;105926;1258;60361;-78
2023/05/29 02:51:09;;;;;;;8.90;4.10;;;;;;;11.31;59.30;100088.80;105740;1253;73856;-79
2023/05/29 02:53:37;;;;;;;7.20;4.00;;;;;;;11.31;59.47;100089.73;106042;1253;69663;-77
2023/05/29 02:56:07;;;;;;;6.30;3.90;;;;;;;11.29;59.27;100086.20;106145;1251;72944;-79
2023/05/29 02:58:35;;;;;;;5.70;3.60;;;;;;;11.29;59.41;100091.31;106046;1250;60968;-78
2023/05/29 03:01:04;;;;;;;5.00;4.20;;;;;;;11.30;59.40;100091.21;106118;1251;60874;-79
2023/05/29 03:03:32;;;;;;;4.20;3.50;;;;;;;11.33;59.56;100089.86;105639;1251;72616;-79
2023/05/29 03:06:00;;;;;;;5.70;4.30;;;;;;;11.36;59.66;100087.61;106355;1256;71156;-78
2023/05/29 03:08:28;;;;;;;8.80;4.10;;;;;;;11.35;59.73;100089.30;106439;1256;72753;-78
2023/05/29 03:10:56;;;;;;;6.80;4.10;;;;;;;11.37;60.16;100088.47;106301;1255;60521;-79
2023/05/29 03:13:24;;;;;;;4.40;3.50;;;;;;;11.43;60.12;100092.16;106418;1252;60339;-82
2023/05/29 03:15:56;;;;;;;5.30;3.50;;;;;;;11.47;60.05;100088.84;106358;1253;72811;-79
2023/05/29 03:18:25;;;;;;;5.90;3.90;;;;;;;11.50;59.95;100087.66;106334;1257;68337;-79
2023/05/29 03:20:53;;;;;;;5.80;4.00;;;;;;;11.51;60.14;100091.27;106372;1254;72581;-79
2023/05/29 03:23:21;;;;;;;7.70;3.90;;;;;;;11.57;60.20;100090.84;106607;1253;60384;-77
2023/05/29 03:25:52;;;;;;;6.50;4.00;;;;;;;11.64;60.11;100087.80;107078;1251;60457;-80
2023/05/29 03:28:20;;;;;;;6.20;4.00;;;;;;;11.70;59.80;100091.84;105986;1251;72417;-80
2023/05/29 03:30:48;;;;;;;7.20;4.10;;;;;;;11.77;60.00;100094.67;105982;1256;68131;-78
2023/05/29 03:33:17;;;;;;;6.50;3.50;;;;;;;11.85;59.79;100096.16;105969;1256;71465;-80
2023/05/29 03:36:13;;;;;;;6.00;3.90;;;;;;;11.93;59.70;100101.83;106044;1251;60333;-80
2023/05/29 03:38:41;;;;;;;6.60;3.60;;;;;;;11.99;59.80;100097.80;108054;1251;60026;-79
2023/05/29 03:41:09;;;;;;;9.10;3.80;;;;;;;12.07;59.91;100095.37;106239;1258;72540;-80
2023/05/29 03:43:37;;;;;;;6.00;3.90;;;;;;;12.14;59.86;100098.48;106575;1260;68808;-80
2023/05/29 03:46:04;;;;;;;10.10;4.00;;;;;;;12.22;59.63;100097.61;106609;1251;71369;-79
2023/05/29 03:48:33;;;;;;;7.10;3.70;;;;;;;12.30;59.58;100101.34;106706;1253;60658;-78
2023/05/29 03:51:00;;;;;;;5.90;3.90;;;;;;;12.39;59.58;100104.79;106483;1258;60442;-79
2023/05/29 03:53:32;;;;;;;6.60;3.70;;;;;;;12.46;59.68;100104.16;107387;1251;72669;-79
2023/05/29 03:56:00;;;;;;;10.20;4.30;;;;;;;12.53;59.62;100101.61;106112;1257;69080;-82
2023/05/29 03:58:28;;;;;;;7.70;4.20;;;;;;;12.62;59.63;100097.41;105845;1260;71767;-79
2023/05/29 04:00:56;;;;;;;6.30;3.70;;;;;;;12.72;59.14;100098.27;106232;1254;60450;-80
2023/05/29 04:03:24;;;;;;;5.60;4.00;;;;;;;12.82;59.02;100102.29;107384;1251;60429;-77
2023/05/29 04:05:52;;;;;;;7.10;4.10;;;;;;;12.94;58.57;100101.59;107823;1251;72612;-74
2023/05/29 04:08:20;;;;;;;6.60;4.00;;;;;;;13.07;58.09;100099.26;106895;1254;70259;-77
2023/05/29 04:10:47;;;;;;;10.20;4.80;;;;;;;13.20;57.68;100097.55;106088;1259;70670;-79
2023/05/29 04:13:15;;;;;;;11.60;4.30;;;;;;;13.32;57.24;100093.19;106026;1257;60764;-81
2023/05/29 04:15:42;;;;;;;9.20;4.50;;;;;;;13.45;56.67;100093.80;106069;1251;60561;-79
2023/05/29 04:18:10;;;;;;;8.20;4.80;;;;;;;13.59;55.99;100096.67;105993;1251;72574;-80
2023/05/29 04:20:38;;;;;;;9.00;4.70;;;;;;;13.71;55.78;100095.04;107620;1259;68719;-78
2023/05/29 04:23:05;;;;;;;10.80;4.90;;;;;;;13.85;55.17;100098.39;107804;1253;72664;-77
2023/05/29 04:25:34;;;;;;;12.50;5.30;;;;;;;14.04;54.63;100095.89;108440;1255;59173;-77
2023/05/29 04:28:03;;;;;;;7.80;5.00;;;;;;;14.25;54.24;100096.73;108538;1251;60265;-77
2023/05/29 04:30:33;;;;;;;10.10;4.90;;;;;;;14.49;53.92;100095.27;108389;1251;72408;-78
2023/05/29 04:33:02;;;;;;;13.00;5.20;;;;;;;14.73;53.22;100095.30;107841;1251;68759;-78
2023/05/29 04:35:30;;;;;;;7.40;4.20;;;;;;;14.93;52.61;100094.40;107607;1257;73033;-78
2023/05/29 04:38:01;;;;;;;9.00;4.20;;;;;;;15.13;51.68;100093.77;108003;1250;60315;-76
2023/05/29 04:40:32;;;;;;;10.80;4.40;;;;;;;15.31;51.09;100090.48;108487;1257;60364;-79
2023/05/29 04:43:00;;;;;;;7.50;4.20;;;;;;;15.48;50.92;100091.40;108405;1251;71615;-77
2023/05/29 04:45:29;;;;;;;7.10;4.30;;;;;;;15.65;50.57;100089.26;107730;1251;69353;-78
2023/05/29 04:47:56;;;;;;;6.80;4.50;;;;;;;15.81;50.39;100090.33;107544;1252;71383;-78
2023/05/29 04:50:27;;;;;;;6.80;4.90;;;;;;;15.95;50.11;100094.71;108424;1253;59865;-76
2023/05/29 04:52:55;;;;;;;7.60;4.60;;;;;;;16.05;49.86;100094.51;107920;1251;60265;-79
2023/05/29 04:55:24;;;;;;;7.50;5.10;;;;;;;16.15;49.44;100100.72;108519;1251;72577;-78
2023/05/29 04:57:52;;;;;;;7.50;5.30;;;;;;;16.25;49.15;100099.50;108293;1252;68971;-78
2023/05/29 05:00:20;;;;;;;6.40;4.60;;;;;;;16.34;49.16;100098.98;108685;1251;70227;-79
2023/05/29 05:02:51;;;;;;;9.00;5.10;;;;;;;16.44;48.98;100103.11;108814;1251;60473;-79
2023/05/29 05:05:20;;;;;;;8.00;5.60;;;;;;;16.54;48.79;100100.17;108163;1257;58786;-76
2023/05/29 05:07:49;;;;;;;10.00;5.30;;;;;;;16.65;48.65;100095.35;107508;1253;73465;-76
2023/05/29 05:10:16;;;;;;;10.60;6.10;;;;;;;16.83;48.49;100091.28;108507;1251;70511;-79
2023/05/29 05:12:44;;;;;;;15.00;6.30;;;;;;;17.15;48.03;100083.38;109002;1251;71435;-80
2023/05/29 05:15:17;;;;;;;9.00;5.50;;;;;;;17.49;47.51;100082.61;109159;1251;58987;-79
2023/05/29 05:17:44;;;;;;;6.50;5.00;;;;;;;17.75;46.94;100082.42;109366;1252;58755;-80
2023/05/29 05:20:13;;;;;;;7.70;5.00;;;;;;;17.91;46.39;100090.06;108533;1251;72571;-80
2023/05/29 05:22:40;;;;;;;12.00;5.80;;;;;;;18.00;45.99;100092.78;108803;1251;68914;-77
2023/05/29 05:25:09;;;;;;;10.60;4.80;;;;;;;18.07;45.81;100091.54;108875;1253;71119;-79
2023/05/29 05:27:36;;;;;;;9.40;5.40;;;;;;;18.11;44.93;100093.77;108641;1251;58965;-81
2023/05/29 05:30:04;;;;;;;8.70;5.10;;;;;;;18.11;44.47;100094.30;108555;1251;58277;-79
2023/05/29 05:32:33;;;;;;;9.70;5.20;;;;;;;18.11;44.38;100098.89;108854;1252;72679;-77
2023/05/29 05:35:04;;;;;;;10.20;5.50;;;;;;;18.10;44.48;100102.91;108520;1251;69378;-78
2023/05/29 05:37:32;;;;;;;8.00;5.30;;;;;;;18.10;44.60;100105.67;108984;1251;71109;-77
2023/05/29 05:40:00;;;;;;;9.10;5.40;;;;;;;18.10;44.38;100107.83;108994;1253;59138;-77
2023/05/29 05:42:28;;;;;;;7.80;5.20;;;;;;;18.10;44.38;100106.67;109069;1251;59127;-77
2023/05/29 05:45:06;;;;;;;9.70;5.80;;;;;;;18.11;44.47;100108.40;109480;1251;74768;-79
2023/05/29 05:47:33;;;;;;;8.90;5.10;;;;;;;18.13;44.49;100107.66;109475;1251;69240;-76
2023/05/29 05:50:01;;;;;;;10.10;4.80;;;;;;;18.18;44.48;100104.34;109447;1251;71060;-74
2023/05/29 05:52:31;;;;;;;9.20;4.80;;;;;;;18.23;44.41;100108.92;109357;1251;59063;-75
2023/05/29 05:54:59;;;;;;;5.80;4.30;;;;;;;18.29;44.24;100106.81;109352;1251;58813;-74
2023/05/29 05:57:27;;;;;;;6.30;4.10;;;;;;;18.32;44.08;100112.27;108950;1251;72799;-77
2023/05/29 05:59:56;;;;;;;9.30;4.10;;;;;;;18.34;43.72;100111.09;106387;1258;69002;-79
2023/05/29 06:02:24;;;;;;;7.30;3.70;;;;;;;18.34;43.33;100111.42;106289;1254;72702;-77
2023/05/29 06:04:51;;;;;;;7.40;4.30;;;;;;;18.36;43.55;100107.66;106138;1254;60734;-79
2023/05/29 06:07:19;;;;;;;6.50;4.60;;;;;;;18.36;43.52;100109.14;106140;1253;60521;-78
2023/05/29 06:09:48;;;;;;;9.10;4.00;;;;;;;18.36;43.62;100113.70;105903;1258;73722;-77
2023/05/29 06:12:16;;;;;;;7.40;3.90;;;;;;;18.37;43.30;100113.98;106081;1253;70035;-76
2023/05/29 06:14:51;;;;;;;7.70;4.30;;;;;;;18.31;43.07;100114.05;105904;1259;72797;-77
2023/05/29 06:17:19;;;;;;;5.20;4.10;;;;;;;18.25;43.37;100114.80;106089;1252;60993;-75
2023/05/29 06:19:49;;;;;;;5.90;4.00;;;;;;;18.23;43.51;100117.77;105693;1251;60566;-76
2023/05/29 06:22:18;;;;;;;9.80;4.20;;;;;;;18.22;43.77;100113.60;105907;1259;74030;-76
2023/05/29 06:24:45;;;;;;;5.20;3.70;;;;;;;18.25;43.75;100115.92;106113;1251;70352;-77
2023/05/29 06:27:13;;;;;;;6.20;3.60;;;;;;;18.30;43.65;100115.86;106039;1256;72686;-78
2023/05/29 06:29:40;;;;;;;6.90;3.80;;;;;;;18.32;43.58;100114.12;106167;1251;60484;-76
2023/05/29 06:32:08;;;;;;;6.00;3.70;;;;;;;18.36;43.61;100113.70;106031;1257;60419;-78
2023/05/29 06:34:36;;;;;;;8.00;4.20;;;;;;;18.43;43.65;100113.11;105923;1253;73907;-76
2023/05/29 06:37:03;;;;;;;5.90;3.70;;;;;;;18.51;44.02;100109.94;105980;1253;69169;-76
2023/05/29 06:39:31;;;;;;;7.60;4.20;;;;;;;18.60;44.10;100107.94;105970;1250;72694;-76
2023/05/29 06:41:59;;;;;;;13.20;4.70;;;;;;;18.69;44.00;100106.16;105876;1252;60572;-77
2023/05/29 06:44:27;;;;;;;9.90;3.70;;;;;;;18.79;44.09;100105.07;105987;1252;60540;-76
2023/05/29 06:46:54;;;;;;;6.10;4.40;;;;;;;18.87;44.14;100106.33;105919;1258;73785;-76
2023/05/29 06:49:22;;;;;;;12.30;3.80;;;;;;;18.92;44.04;100102.04;105860;1258;70591;-75
2023/05/29 06:51:50;;;;;;;8.00;3.70;;;;;;;18.95;43.65;100101.29;105875;1254;72722;-75
2023/05/29 06:54:25;;;;;;;6.70;3.10;;;;;;;18.98;42.60;100100.31;105923;1256;60307;-77
2023/05/29 06:56:53;;;;;;;6.10;2.90;;;;;;;19.01;42.54;100098.64;106028;1257;60324;-78
2023/05/29 06:59:36;;;;;;;8.60;3.60;;;;;;;19.07;42.30;100096.59;106042;1253;72675;-77
2023/05/29 07:02:05;;;;;;;4.90;3.30;;;;;;;19.06;42.08;100093.44;105912;1257;68889;-76
2023/05/29 07:04:33;;;;;;;5.50;2.90;;;;;;;19.06;41.79;100092.46;105988;1259;72926;-78
2023/05/29 07:07:00;;;;;;;9.60;3.00;;;;;;;19.09;41.41;100087.05;106485;1253;60590;-77
2023/05/29 07:09:28;;;;;;;6.00;2.40;;;;;;;19.10;40.85;100087.41;106793;1251;60447;-77
2023/05/29 07:11:56;;;;;;;5.90;3.20;;;;;;;19.15;40.85;100083.29;106320;1253;72523;-75
2023/05/29 07:14:23;;;;;;;5.10;2.80;;;;;;;19.21;40.70;100079.89;106648;1257;70308;-74
2023/05/29 07:16:51;;;;;;;4.90;2.70;;;;;;;19.29;40.72;100084.24;106402;1255;72904;-77
2023/05/29 07:19:19;;;;;;;8.20;2.30;;;;;;;19.39;40.49;100079.73;106461;1257;60472;-76
2023/05/29 07:21:49;;;;;;;5.70;2.70;;;;;;;19.50;39.92;100078.21;106206;1251;60434;-78
2023/05/29 07:24:18;;;;;;;3.50;2.50;;;;;;;19.59;39.57;100082.08;106032;1257;74063;-74
2023/05/29 07:26:45;;;;;;;4.80;2.40;;;;;;;19.65;38.86;100086.02;105961;1253;70343;-75
2023/05/29 07:29:14;;;;;;;5.70;2.60;;;;;;;19.68;38.42;100087.02;105793;1254;71136;-75
2023/05/29 07:31:42;;;;;;;3.70;1.90;;;;;;;19.69;38.19;100086.48;106201;1253;60489;-76
2023/05/29 07:34:10;;;;;;;7.30;2.70;;;;;;;19.64;38.37;100081.63;106013;1253;60301;-76
2023/05/29 07:36:56;;;;;;;4.80;2.60;;;;;;;19.62;38.40;100083.34;106005;1252;74069;-77
2023/05/29 07:39:24;;;;;;;5.60;2.20;;;;;;;19.58;38.72;100082.71;106007;1254;69950;-75
2023/05/29 07:41:52;;;;;;;3.60;2.30;;;;;;;19.59;38.97;100083.27;105854;1254;73714;-77
2023/05/29 07:44:20;;;;;;;9.70;2.50;;;;;;;19.63;39.25;100080.44;105732;1253;60425;-77
2023/05/29 07:46:47;;;;;;;4.30;2.60;;;;;;;19.69;39.70;100085.32;105881;1257;60361;-76
2023/05/29 07:49:47;;;;;;;6.10;2.60;;;;;;;19.80;39.54;100083.80;105784;1253;73920;-77
2023/05/29 07:52:15;;;;;;;6.40;3.00;;;;;;;19.90;39.18;100084.23;105824;1256;68733;-78
2023/05/29 07:54:43;;;;;;;7.10;2.60;;;;;;;19.98;39.00;100092.27;105973;1253;71444;-78
2023/05/29 07:57:11;;;;;;;6.20;2.40;;;;;;;20.06;38.81;100086.73;106050;1253;60540;-78
2023/05/29 07:59:41;;;;;;;4.70;2.30;;;;;;;20.12;38.61;100080.79;106013;1257;59996;-78
2023/05/29 08:02:08;;;;;;;4.80;2.60;;;;;;;20.20;38.69;100081.04;105953;1253;73359;-76
2023/05/29 08:04:43;;;;;;;4.30;2.50;;;;;;;20.30;38.46;100089.73;106222;1253;68826;-79
2023/05/29 08:07:11;;;;;;;4.30;2.40;;;;;;;20.36;37.95;100086.20;106258;1253;74792;-78
2023/05/29 08:09:38;;;;;;;3.40;2.30;;;;;;;20.34;37.85;100088.89;105965;1251;60476;-77
2023/05/29 08:12:06;;;;;;;2.10;1.90;;;;;;;20.37;37.92;100083.35;106344;1252;60343;-76
2023/05/29 08:14:33;;;;;;;10.20;2.20;;;;;;;20.44;37.89;100081.38;106987;1251;73864;-77
2023/05/29 08:17:03;;;;;;;3.90;2.00;;;;;;;20.55;37.48;100073.81;107403;1251;68685;-76
2023/05/29 08:19:30;;;;;;;4.90;2.20;;;;;;;20.66;37.35;100072.05;106049;1258;71569;-76
2023/05/29 08:21:57;;;;;;;3.40;1.80;;;;;;;20.76;36.83;100068.27;105967;1256;60405;-77
2023/05/29 08:24:25;;;;;;;3.70;2.10;;;;;;;20.84;36.50;100063.27;105975;1253;60502;-76
2023/05/29 08:26:52;;;;;;;2.40;2.10;;;;;;;20.92;36.16;100057.92;105778;1253;73938;-77
2023/05/29 08:29:20;;;;;;;2.50;1.90;;;;;;;20.96;35.43;100054.73;106068;1251;70285;-76
2023/05/29 08:31:47;;;;;;;8.80;2.30;;;;;;;20.91;35.43;100053.90;106037;1257;71262;-76
2023/05/29 08:34:15;;;;;;;4.10;2.10;;;;;;;20.92;35.80;100055.59;106237;1253;60526;-77
2023/05/29 08:36:42;;;;;;;5.40;2.10;;;;;;;21.05;35.91;100056.54;106339;1253;60486;-77
2023/05/29 08:39:10;;;;;;;3.20;2.10;;;;;;;21.21;35.52;100055.81;106326;1252;74058;-77
2023/05/29 08:41:49;;;;;;;4.00;2.10;;;;;;;21.37;35.33;100048.44;106194;1253;70342;-79
2023/05/29 08:44:19;;;;;;;6.50;2.50;;;;;;;21.56;35.31;100048.08;106251;1253;72411;-74
2023/05/29 08:46:47;;;;;;;2.50;2.10;;;;;;;21.75;34.79;100044.34;106237;1253;60544;-77
2023/05/29 08:49:15;;;;;;;3.20;1.80;;;;;;;21.90;34.85;100036.66;105953;1259;60422;-76
2023/05/29 08:51:43;;;;;;;6.00;2.60;;;;;;;22.09;34.77;100038.59;106243;1254;72598;-76
2023/05/29 08:54:11;;;;;;;6.20;2.90;;;;;;;22.30;34.54;100040.16;106027;1254;68333;-76
2023/05/29 08:56:38;;;;;;;4.70;3.10;;;;;;;22.52;34.14;100034.88;106109;1254;72768;-74
2023/05/29 09:01:47;;;;;;;3.50;2.50;;;;;;;22.99;33.53;100035.41;102696;1292;600425;-76
2023/05/29 09:04:15;;;;;;;3.30;2.10;;;;;;;23.17;33.38;100027.41;105325;1259;59999;-77
2023/05/29 09:06:44;;;;;;;4.40;2.70;;;;;;;23.43;33.14;100024.10;105410;1260;59996;-75
2023/05/29 09:09:12;;;;;;;4.60;2.50;;;;;;;23.69;32.74;100026.63;105443;1259;71312;-75
2023/05/29 09:11:39;;;;;;;4.70;2.50;;;;;;;23.93;32.48;100019.05;105356;1259;69418;-75
2023/05/29 09:14:11;;;;;;;4.80;2.10;;;;;;;24.19;32.30;100015.92;105764;1257;72791;-77
2023/05/29 09:16:43;;;;;;;5.10;2.80;;;;;;;24.45;31.98;100015.17;105826;1251;202255;-76
2023/05/29 09:19:10;;;;;;;4.70;2.70;;;;;;;24.73;31.84;100014.25;106103;1253;59261;-77
2023/05/29 09:21:40;;;;;;;4.60;2.40;;;;;;;25.14;31.33;100008.38;105922;1251;70760;-77
2023/05/29 09:24:07;;;;;;;3.90;3.00;;;;;;;25.55;31.11;100005.14;106187;1253;69633;-77
2023/05/29 09:26:39;;;;;;;2.60;2.20;;;;;;;26.02;30.31;100004.80;106410;1257;72430;-76
2023/05/29 09:29:09;;;;;;;3.40;2.50;;;;;;;26.45;30.14;100001.56;105991;1254;60190;-77
2023/05/29 09:31:38;;;;;;;10.10;2.30;;;;;;;26.91;29.09;99995.16;105755;1253;59787;-78
2023/05/29 09:34:06;;;;;;;4.40;2.60;;;;;;;27.30;28.68;99999.14;105959;1251;73060;-78
2023/05/29 09:36:33;;;;;;;6.90;2.40;;;;;;;27.71;28.63;100001.62;106067;1251;70149;-76
2023/05/29 09:39:03;;;;;;;5.00;2.90;;;;;;;28.17;27.98;100002.67;105970;1257;71234;-75
2023/05/29 09:41:48;;;;;;;4.10;2.60;;;;;;;28.51;27.38;100003.97;105869;1251;60941;-76
2023/05/29 09:44:15;;;;;;;4.20;2.50;;;;;;;28.74;27.03;100003.85;105821;1251;59999;-76
2023/05/29 09:46:43;;;;;;;7.20;2.60;;;;;;;29.02;26.99;99993.12;107123;1257;73256;-80
2023/05/29 09:49:14;;;;;;;4.80;2.70;;;;;;;29.37;26.66;99983.17;107944;1251;69724;-80
2023/05/29 09:51:42;;;;;;;5.50;2.60;;;;;;;29.81;26.03;99983.42;106526;1255;70729;-76
2023/05/29 09:54:16;;;;;;;5.20;3.10;;;;;;;30.13;25.90;99975.11;106239;1253;60801;-75
2023/05/29 09:56:45;;;;;;;6.30;2.70;;;;;;;30.48;25.74;99969.76;105943;1251;59709;-75
2023/05/29 09:59:14;;;;;;;5.70;2.60;;;;;;;30.80;25.53;99960.19;105974;1252;73173;-75
2023/05/29 10:01:46;;;;;;;3.90;2.30;;;;;;;31.14;25.39;99957.09;105687;1253;70676;-76
2023/05/29 10:04:14;;;;;;;4.00;2.40;;;;;;;31.56;25.04;99958.30;105749;1256;71414;-74
2023/05/29 10:06:48;;;;;;;2.30;2.10;;;;;;;31.87;24.75;99956.46;106058;1255;62042;-77
2023/05/29 10:09:18;;;;;;;4.50;2.30;;;;;;;32.19;24.45;99956.49;106071;1255;59638;-76
2023/05/29 10:11:47;;;;;;;3.00;2.60;;;;;;;32.52;24.43;99954.90;105815;1255;72998;-77
2023/05/29 10:14:20;;;;;;;3.90;2.20;;;;;;;32.88;24.12;99951.83;105914;1258;68883;-74
2023/05/29 10:16:50;;;;;;;4.00;2.40;;;;;;;33.07;24.08;99942.94;105745;1253;72927;-81
2023/05/29 10:19:22;;;;;;;3.30;2.70;;;;;;;33.31;24.10;99943.88;105922;1254;59986;-81
2023/05/29 10:21:50;;;;;;;;;;;;;;;33.69;23.82;99945.59;105946;1255;61124;-82
2023/05/29 10:24:18;;;;;;;3.50;2.60;;;;;;;33.97;23.61;99942.21;105823;1258;71554;-80
2023/05/29 10:26:50;;;;;;;4.50;2.60;;;;;;;34.12;23.53;99944.36;106215;1254;70538;-79
2023/05/29 10:29:24;;;;;;;2.60;2.20;;;;;;;34.22;23.15;99945.29;105817;1255;72490;-78
2023/05/29 10:32:17;;;;;;;4.60;2.60;;;;;;;34.37;23.25;99944.24;105852;1257;60108;-78
2023/05/29 10:35:04;;;;;;;2.30;2.10;;;;;;;34.51;22.85;99947.40;106062;1253;59906;-79
2023/05/29 10:38:02;;;;;;;3.10;2.50;;;;;;;34.56;22.86;99945.74;105960;1254;73414;-81
2023/05/29 10:40:30;;;;;;;4.60;3.20;;;;;;;34.83;22.95;99945.79;105908;1254;70075;-78
2023/05/29 10:42:58;;;;;;;6.30;2.50;;;;;;;34.92;22.73;99941.59;105724;1253;64255;-77
2023/05/29 10:45:32;;;;;;;2.90;2.60;;;;;;;35.06;22.74;99938.27;105818;1253;59607;-79
2023/05/29 10:48:06;;;;;;;3.40;3.10;;;;;;;35.32;22.58;99931.85;105754;1258;59540;-78
2023/05/29 10:50:36;;;;;;;3.00;2.70;;;;;;;35.57;22.63;99930.98;105789;1260;66842;-79
2023/05/29 10:53:11;;;;;;;2.70;2.50;;;;;;;35.86;22.23;99934.09;105892;1260;70362;-79
2023/05/29 10:55:40;;;;;;;2.70;2.50;;;;;;;35.92;22.03;99934.88;105626;1253;62470;-80
2023/05/29 10:58:09;;;;;;;5.80;3.00;;;;;;;35.91;21.90;99936.03;105607;1254;59773;-77
2023/05/29 11:00:42;;;;;;;2.40;2.20;;;;;;;36.06;21.82;99932.75;105624;1258;59655;-78
2023/05/29 11:03:13;;;;;;;3.10;2.70;;;;;;;36.19;21.63;99930.51;105680;1256;64473;-78
2023/05/29 11:06:01;;;;;;;5.10;3.50;;;;;;;36.20;21.61;99934.34;107727;1258;60249;-75
2023/05/29 11:08:46;;;;;;;4.80;2.60;;;;;;;36.24;21.69;99935.52;107735;1254;62809;-79
2023/05/29 11:11:38;;;;;;;6.50;3.00;;;;;;;36.32;21.62;99933.14;107340;1254;60357;-77
2023/05/29 11:14:06;;;;;;;5.70;3.10;;;;;;;36.52;21.44;99931.05;105849;1252;59620;-78
2023/05/29 11:16:35;;;;;;;2.90;2.60;;;;;;;36.66;21.27;99928.84;106072;1254;63407;-76
2023/05/29 11:19:09;;;;;;;4.70;3.00;;;;;;;36.80;21.49;99925.92;106344;1255;61423;-77
2023/05/29 11:21:59;;;;;;;6.10;2.90;;;;;;;37.06;21.04;99914.96;106507;1257;62478;-79
2023/05/29 11:24:29;;;;;;;3.60;2.80;;;;;;;37.12;21.14;99909.50;105891;1259;59768;-80
2023/05/29 11:27:00;;;;;;;5.30;2.70;;;;;;;37.26;21.13;99907.80;106047;1254;59750;-81
2023/05/29 11:29:28;;;;;;;3.20;2.80;;;;;;;37.57;20.84;99905.66;105825;1259;66319;-79
2023/05/29 11:32:03;;;;;;;3.20;2.50;;;;;;;37.81;20.83;99902.09;106400;1254;60107;-77